Freeburn, Kentucky
Current Conditions -  °F | °C
As of 7:15 AM on Sunday 25 Jan 2015 (Local Time) from KPBX Reporting Station
Clear Clear  
Wind Chill: 30°   Ceiling: Unl
Heat Index: 35°   Visibility: 10mi
Dew Point: 29°   Wind: 5mph
Humidity: 80%   Direction: 150°SSE
Pressure: 29.8"   Gusts: NA
Location:  37.56°N, 82.14°W
Report Text: KPBX 251215Z AUTO 15004KT 10SM CLR 01/M02 A2980 RMK AO2 T00141017
Loading
Personal Weather Stations






























Interactive Weather Map New forecast layout! Learn more

10-Day Weather Forecast

Advertisements
Track Severe Weather on mobile